sensor_id;sensor_type;location;lat;lon;timestamp;P1;durP1;ratioP1;P2;durP2;ratioP2
7985;SDS011;4038;42.612;23.066;2023-05-10T00:00:10;18.20;;;17.20;;
7985;SDS011;4038;42.612;23.066;2023-05-10T00:02:36;18.57;;;17.53;;
7985;SDS011;4038;42.612;23.066;2023-05-10T00:05:01;20.17;;;18.98;;
7985;SDS011;4038;42.612;23.066;2023-05-10T00:07:27;19.58;;;18.48;;
7985;SDS011;4038;42.612;23.066;2023-05-10T00:09:52;19.35;;;18.25;;
7985;SDS011;4038;42.612;23.066;2023-05-10T00:12:18;19.77;;;18.58;;
7985;SDS011;4038;42.612;23.066;2023-05-10T00:14:43;19.80;;;18.60;;
7985;SDS011;4038;42.612;23.066;2023-05-10T00:17:08;19.10;;;18.00;;
7985;SDS011;4038;42.612;23.066;2023-05-10T00:19:34;19.20;;;18.00;;
7985;SDS011;4038;42.612;23.066;2023-05-10T00:21:59;19.17;;;18.08;;
7985;SDS011;4038;42.612;23.066;2023-05-10T00:24:25;19.40;;;18.30;;
7985;SDS011;4038;42.612;23.066;2023-05-10T00:26:50;20.42;;;19.15;;
7985;SDS011;4038;42.612;23.066;2023-05-10T00:29:15;19.20;;;18.10;;
7985;SDS011;4038;42.612;23.066;2023-05-10T00:31:41;19.10;;;18.00;;
7985;SDS011;4038;42.612;23.066;2023-05-10T00:34:06;18.80;;;17.77;;
7985;SDS011;4038;42.612;23.066;2023-05-10T00:36:31;19.33;;;18.23;;
7985;SDS011;4038;42.612;23.066;2023-05-10T00:38:57;19.85;;;18.75;;
7985;SDS011;4038;42.612;23.066;2023-05-10T00:41:22;19.87;;;18.77;;
7985;SDS011;4038;42.612;23.066;2023-05-10T00:43:48;19.50;;;18.30;;
7985;SDS011;4038;42.612;23.066;2023-05-10T00:46:14;19.70;;;18.58;;
7985;SDS011;4038;42.612;23.066;2023-05-10T00:48:40;20.37;;;19.17;;
7985;SDS011;4038;42.612;23.066;2023-05-10T00:51:05;18.93;;;17.83;;
7985;SDS011;4038;42.612;23.066;2023-05-10T00:53:31;18.57;;;17.57;;
7985;SDS011;4038;42.612;23.066;2023-05-10T00:55:57;19.73;;;18.65;;
7985;SDS011;4038;42.612;23.066;2023-05-10T00:58:24;18.90;;;17.80;;
7985;SDS011;4038;42.612;23.066;2023-05-10T01:00:53;18.40;;;17.30;;
7985;SDS011;4038;42.612;23.066;2023-05-10T01:03:21;18.27;;;17.17;;
7985;SDS011;4038;42.612;23.066;2023-05-10T01:05:46;19.23;;;18.13;;
7985;SDS011;4038;42.612;23.066;2023-05-10T01:08:12;18.77;;;17.73;;
7985;SDS011;4038;42.612;23.066;2023-05-10T01:10:37;18.50;;;17.40;;
7985;SDS011;4038;42.612;23.066;2023-05-10T01:13:03;18.80;;;17.60;;
7985;SDS011;4038;42.612;23.066;2023-05-10T01:15:28;17.93;;;16.90;;
7985;SDS011;4038;42.612;23.066;2023-05-10T01:17:55;18.73;;;17.53;;
7985;SDS011;4038;42.612;23.066;2023-05-10T01:20:21;18.77;;;17.67;;
7985;SDS011;4038;42.612;23.066;2023-05-10T01:25:29;19.02;;;17.83;;
7985;SDS011;4038;42.612;23.066;2023-05-10T01:30:50;18.80;;;17.75;;
7985;SDS011;4038;42.612;23.066;2023-05-10T01:33:41;19.67;;;18.57;;
7985;SDS011;4038;42.612;23.066;2023-05-10T01:39:02;19.10;;;18.00;;
7985;SDS011;4038;42.612;23.066;2023-05-10T01:44:35;20.33;;;18.97;;
7985;SDS011;4038;42.612;23.066;2023-05-10T01:47:11;19.45;;;18.25;;
7985;SDS011;4038;42.612;23.066;2023-05-10T01:49:45;19.02;;;17.92;;
7985;SDS011;4038;42.612;23.066;2023-05-10T01:52:15;18.97;;;17.67;;
7985;SDS011;4038;42.612;23.066;2023-05-10T01:54:49;19.15;;;17.95;;
7985;SDS011;4038;42.612;23.066;2023-05-10T01:57:19;18.83;;;17.73;;
7985;SDS011;4038;42.612;23.066;2023-05-10T01:59:47;18.40;;;17.30;;
7985;SDS011;4038;42.612;23.066;2023-05-10T02:02:15;19.02;;;17.92;;
7985;SDS011;4038;42.612;23.066;2023-05-10T02:04:42;18.35;;;17.25;;
7985;SDS011;4038;42.612;23.066;2023-05-10T02:07:10;18.92;;;17.52;;
7985;SDS011;4038;42.612;23.066;2023-05-10T02:09:36;18.58;;;17.48;;
7985;SDS011;4038;42.612;23.066;2023-05-10T02:12:02;18.88;;;17.77;;
7985;SDS011;4038;42.612;23.066;2023-05-10T02:14:30;19.27;;;18.10;;
7985;SDS011;4038;42.612;23.066;2023-05-10T02:16:59;19.45;;;18.33;;
7985;SDS011;4038;42.612;23.066;2023-05-10T02:19:27;18.63;;;17.58;;
7985;SDS011;4038;42.612;23.066;2023-05-10T02:21:53;19.40;;;18.20;;
7985;SDS011;4038;42.612;23.066;2023-05-10T02:24:20;19.20;;;18.10;;
7985;SDS011;4038;42.612;23.066;2023-05-10T02:26:47;19.73;;;18.52;;
7985;SDS011;4038;42.612;23.066;2023-05-10T02:29:16;18.85;;;17.75;;
7985;SDS011;4038;42.612;23.066;2023-05-10T02:31:42;19.63;;;18.43;;
7985;SDS011;4038;42.612;23.066;2023-05-10T02:34:09;20.03;;;18.83;;
7985;SDS011;4038;42.612;23.066;2023-05-10T02:36:36;20.77;;;19.47;;
7985;SDS011;4038;42.612;23.066;2023-05-10T02:39:03;20.90;;;19.60;;
7985;SDS011;4038;42.612;23.066;2023-05-10T02:41:31;19.80;;;18.60;;
7985;SDS011;4038;42.612;23.066;2023-05-10T02:43:59;20.33;;;19.08;;
7985;SDS011;4038;42.612;23.066;2023-05-10T02:46:26;20.20;;;19.00;;
7985;SDS011;4038;42.612;23.066;2023-05-10T02:48:51;19.77;;;18.58;;
7985;SDS011;4038;42.612;23.066;2023-05-10T02:51:18;20.48;;;19.27;;
7985;SDS011;4038;42.612;23.066;2023-05-10T02:53:48;20.55;;;19.25;;
7985;SDS011;4038;42.612;23.066;2023-05-10T02:56:34;20.83;;;19.63;;
7985;SDS011;4038;42.612;23.066;2023-05-10T02:59:01;20.58;;;19.35;;
7985;SDS011;4038;42.612;23.066;2023-05-10T03:01:27;21.33;;;20.00;;
7985;SDS011;4038;42.612;23.066;2023-05-10T03:03:52;21.70;;;20.30;;
7985;SDS011;4038;42.612;23.066;2023-05-10T03:06:18;21.05;;;19.65;;
7985;SDS011;4038;42.612;23.066;2023-05-10T03:08:44;21.65;;;20.25;;
7985;SDS011;4038;42.612;23.066;2023-05-10T03:13:56;20.98;;;19.67;;
7985;SDS011;4038;42.612;23.066;2023-05-10T03:16:51;21.83;;;20.45;;
7985;SDS011;4038;42.612;23.066;2023-05-10T03:19:40;21.50;;;20.13;;
7985;SDS011;4038;42.612;23.066;2023-05-10T03:22:12;22.58;;;20.98;;
7985;SDS011;4038;42.612;23.066;2023-05-10T03:24:44;22.33;;;20.73;;
7985;SDS011;4038;42.612;23.066;2023-05-10T03:27:11;20.67;;;19.27;;
7985;SDS011;4038;42.612;23.066;2023-05-10T03:29:39;22.05;;;20.65;;
7985;SDS011;4038;42.612;23.066;2023-05-10T03:32:04;21.98;;;20.58;;
7985;SDS011;4038;42.612;23.066;2023-05-10T03:34:30;22.57;;;21.07;;
7985;SDS011;4038;42.612;23.066;2023-05-10T03:36:56;21.57;;;20.17;;
7985;SDS011;4038;42.612;23.066;2023-05-10T03:39:22;22.03;;;20.53;;
7985;SDS011;4038;42.612;23.066;2023-05-10T03:41:47;22.50;;;21.00;;
7985;SDS011;4038;42.612;23.066;2023-05-10T03:44:12;22.55;;;21.05;;
7985;SDS011;4038;42.612;23.066;2023-05-10T03:46:38;22.20;;;20.65;;
7985;SDS011;4038;42.612;23.066;2023-05-10T03:49:03;21.92;;;20.42;;
7985;SDS011;4038;42.612;23.066;2023-05-10T03:51:29;21.37;;;19.93;;
7985;SDS011;4038;42.612;23.066;2023-05-10T03:53:56;22.42;;;20.83;;
7985;SDS011;4038;42.612;23.066;2023-05-10T03:56:21;22.67;;;21.17;;
7985;SDS011;4038;42.612;23.066;2023-05-10T03:58:47;22.07;;;20.57;;
7985;SDS011;4038;42.612;23.066;2023-05-10T04:01:12;23.05;;;21.45;;
7985;SDS011;4038;42.612;23.066;2023-05-10T04:03:37;22.48;;;20.77;;
7985;SDS011;4038;42.612;23.066;2023-05-10T04:06:03;22.13;;;20.63;;
7985;SDS011;4038;42.612;23.066;2023-05-10T04:08:29;22.48;;;20.88;;
7985;SDS011;4038;42.612;23.066;2023-05-10T04:11:04;22.73;;;21.13;;
7985;SDS011;4038;42.612;23.066;2023-05-10T04:13:31;23.50;;;21.70;;
7985;SDS011;4038;42.612;23.066;2023-05-10T04:15:56;23.13;;;21.52;;
7985;SDS011;4038;42.612;23.066;2023-05-10T04:18:21;24.15;;;22.35;;
7985;SDS011;4038;42.612;23.066;2023-05-10T04:20:47;23.45;;;21.85;;
7985;SDS011;4038;42.612;23.066;2023-05-10T04:23:12;23.03;;;21.27;;
7985;SDS011;4038;42.612;23.066;2023-05-10T04:25:39;23.57;;;21.97;;
7985;SDS011;4038;42.612;23.066;2023-05-10T04:28:04;23.95;;;22.25;;
7985;SDS011;4038;42.612;23.066;2023-05-10T04:30:30;23.40;;;21.80;;
7985;SDS011;4038;42.612;23.066;2023-05-10T04:32:55;22.80;;;21.20;;
7985;SDS011;4038;42.612;23.066;2023-05-10T04:35:20;23.08;;;21.48;;
7985;SDS011;4038;42.612;23.066;2023-05-10T04:37:46;23.37;;;21.73;;
7985;SDS011;4038;42.612;23.066;2023-05-10T04:40:11;23.50;;;21.90;;
7985;SDS011;4038;42.612;23.066;2023-05-10T04:42:39;23.07;;;21.57;;
7985;SDS011;4038;42.612;23.066;2023-05-10T04:45:06;22.70;;;21.10;;
7985;SDS011;4038;42.612;23.066;2023-05-10T04:47:31;22.70;;;21.00;;
7985;SDS011;4038;42.612;23.066;2023-05-10T04:49:57;22.23;;;20.73;;
7985;SDS011;4038;42.612;23.066;2023-05-10T04:52:23;21.53;;;20.03;;
7985;SDS011;4038;42.612;23.066;2023-05-10T04:54:48;21.92;;;20.33;;
7985;SDS011;4038;42.612;23.066;2023-05-10T04:57:14;21.23;;;19.77;;
7985;SDS011;4038;42.612;23.066;2023-05-10T04:59:39;21.23;;;19.73;;
7985;SDS011;4038;42.612;23.066;2023-05-10T05:02:05;20.70;;;19.38;;
7985;SDS011;4038;42.612;23.066;2023-05-10T05:04:30;20.87;;;19.47;;
7985;SDS011;4038;42.612;23.066;2023-05-10T05:06:56;20.83;;;19.42;;
7985;SDS011;4038;42.612;23.066;2023-05-10T05:09:22;20.70;;;19.30;;
7985;SDS011;4038;42.612;23.066;2023-05-10T05:11:47;19.87;;;18.57;;
7985;SDS011;4038;42.612;23.066;2023-05-10T05:14:13;19.95;;;18.65;;
7985;SDS011;4038;42.612;23.066;2023-05-10T05:16:38;21.23;;;19.40;;
7985;SDS011;4038;42.612;23.066;2023-05-10T05:19:07;20.80;;;19.40;;
7985;SDS011;4038;42.612;23.066;2023-05-10T05:21:32;21.87;;;20.20;;
7985;SDS011;4038;42.612;23.066;2023-05-10T05:23:58;20.13;;;18.80;;
7985;SDS011;4038;42.612;23.066;2023-05-10T05:26:23;21.37;;;19.87;;
7985;SDS011;4038;42.612;23.066;2023-05-10T05:28:48;21.57;;;20.07;;
7985;SDS011;4038;42.612;23.066;2023-05-10T05:31:17;21.97;;;20.37;;
7985;SDS011;4038;42.612;23.066;2023-05-10T05:33:43;21.33;;;19.83;;
7985;SDS011;4038;42.612;23.066;2023-05-10T05:36:08;19.57;;;18.33;;
7985;SDS011;4038;42.612;23.066;2023-05-10T05:38:34;20.70;;;19.20;;
7985;SDS011;4038;42.612;23.066;2023-05-10T05:40:59;20.63;;;19.23;;
7985;SDS011;4038;42.612;23.066;2023-05-10T05:43:25;20.60;;;19.20;;
7985;SDS011;4038;42.612;23.066;2023-05-10T05:45:51;21.23;;;19.85;;
7985;SDS011;4038;42.612;23.066;2023-05-10T05:48:18;21.92;;;20.33;;
7985;SDS011;4038;42.612;23.066;2023-05-10T05:50:43;22.02;;;20.35;;
7985;SDS011;4038;42.612;23.066;2023-05-10T05:53:09;21.52;;;20.08;;
7985;SDS011;4038;42.612;23.066;2023-05-10T05:55:34;21.15;;;19.65;;
7985;SDS011;4038;42.612;23.066;2023-05-10T05:58:00;22.87;;;20.97;;
7985;SDS011;4038;42.612;23.066;2023-05-10T06:00:25;22.43;;;20.83;;
7985;SDS011;4038;42.612;23.066;2023-05-10T06:44:27;24.17;;;22.43;;
7985;SDS011;4038;42.612;23.066;2023-05-10T06:46:53;23.53;;;21.63;;
7985;SDS011;4038;42.612;23.066;2023-05-10T06:49:20;23.17;;;21.67;;
7985;SDS011;4038;42.612;23.066;2023-05-10T06:51:45;23.73;;;22.13;;
7985;SDS011;4038;42.612;23.066;2023-05-10T06:54:11;27.75;;;25.00;;
7985;SDS011;4038;42.612;23.066;2023-05-10T06:56:36;22.73;;;21.03;;
7985;SDS011;4038;42.612;23.066;2023-05-10T06:59:01;24.37;;;22.73;;
7985;SDS011;4038;42.612;23.066;2023-05-10T07:01:27;23.37;;;21.77;;
7985;SDS011;4038;42.612;23.066;2023-05-10T07:03:53;24.00;;;22.30;;
7985;SDS011;4038;42.612;23.066;2023-05-10T07:06:18;23.80;;;22.20;;
7985;SDS011;4038;42.612;23.066;2023-05-10T07:08:44;23.88;;;22.17;;
7985;SDS011;4038;42.612;23.066;2023-05-10T07:11:09;23.00;;;21.43;;
7985;SDS011;4038;42.612;23.066;2023-05-10T07:13:35;24.23;;;22.52;;
7985;SDS011;4038;42.612;23.066;2023-05-10T07:16:01;23.75;;;21.98;;
7985;SDS011;4038;42.612;23.066;2023-05-10T07:18:31;23.53;;;21.93;;
7985;SDS011;4038;42.612;23.066;2023-05-10T07:20:57;23.83;;;22.10;;
7985;SDS011;4038;42.612;23.066;2023-05-10T07:23:22;24.23;;;22.48;;
7985;SDS011;4038;42.612;23.066;2023-05-10T07:25:48;24.40;;;22.70;;
7985;SDS011;4038;42.612;23.066;2023-05-10T07:28:17;25.60;;;23.67;;
7985;SDS011;4038;42.612;23.066;2023-05-10T07:30:43;23.92;;;22.20;;
7985;SDS011;4038;42.612;23.066;2023-05-10T07:33:08;23.10;;;21.40;;
7985;SDS011;4038;42.612;23.066;2023-05-10T07:35:35;23.88;;;22.00;;
7985;SDS011;4038;42.612;23.066;2023-05-10T07:38:01;23.83;;;22.10;;
7985;SDS011;4038;42.612;23.066;2023-05-10T07:40:26;25.25;;;23.35;;
7985;SDS011;4038;42.612;23.066;2023-05-10T07:42:52;24.35;;;22.65;;
7985;SDS011;4038;42.612;23.066;2023-05-10T07:45:18;24.45;;;22.75;;
7985;SDS011;4038;42.612;23.066;2023-05-10T07:47:43;25.05;;;23.25;;
7985;SDS011;4038;42.612;23.066;2023-05-10T07:50:09;24.48;;;22.67;;
7985;SDS011;4038;42.612;23.066;2023-05-10T07:52:34;26.08;;;24.17;;
7985;SDS011;4038;42.612;23.066;2023-05-10T07:54:59;26.23;;;24.25;;
7985;SDS011;4038;42.612;23.066;2023-05-10T07:57:25;24.48;;;22.63;;
7985;SDS011;4038;42.612;23.066;2023-05-10T07:59:50;24.80;;;23.00;;
7985;SDS011;4038;42.612;23.066;2023-05-10T08:02:16;25.65;;;23.65;;
7985;SDS011;4038;42.612;23.066;2023-05-10T08:04:41;25.33;;;23.42;;
7985;SDS011;4038;42.612;23.066;2023-05-10T08:07:09;24.15;;;22.40;;
7985;SDS011;4038;42.612;23.066;2023-05-10T08:09:35;25.60;;;23.60;;
7985;SDS011;4038;42.612;23.066;2023-05-10T08:12:01;25.90;;;23.80;;
7985;SDS011;4038;42.612;23.066;2023-05-10T08:14:28;24.07;;;22.33;;
7985;SDS011;4038;42.612;23.066;2023-05-10T08:16:54;24.60;;;22.80;;
7985;SDS011;4038;42.612;23.066;2023-05-10T08:19:20;24.20;;;22.35;;
7985;SDS011;4038;42.612;23.066;2023-05-10T08:21:47;23.70;;;21.80;;
7985;SDS011;4038;42.612;23.066;2023-05-10T08:24:12;24.40;;;22.60;;
7985;SDS011;4038;42.612;23.066;2023-05-10T08:26:38;25.30;;;23.17;;
7985;SDS011;4038;42.612;23.066;2023-05-10T08:29:03;24.05;;;22.17;;
7985;SDS011;4038;42.612;23.066;2023-05-10T08:31:29;23.83;;;22.10;;
7985;SDS011;4038;42.612;23.066;2023-05-10T08:33:54;23.67;;;21.88;;
7985;SDS011;4038;42.612;23.066;2023-05-10T08:36:20;23.80;;;21.90;;
7985;SDS011;4038;42.612;23.066;2023-05-10T08:38:53;23.77;;;21.98;;
7985;SDS011;4038;42.612;23.066;2023-05-10T08:41:22;24.25;;;22.35;;
7985;SDS011;4038;42.612;23.066;2023-05-10T08:43:50;25.92;;;23.85;;
7985;SDS011;4038;42.612;23.066;2023-05-10T08:46:17;27.63;;;25.52;;
7985;SDS011;4038;42.612;23.066;2023-05-10T08:48:44;26.83;;;24.83;;
7985;SDS011;4038;42.612;23.066;2023-05-10T08:51:23;25.38;;;23.48;;
7985;SDS011;4038;42.612;23.066;2023-05-10T08:53:52;26.38;;;24.38;;
7985;SDS011;4038;42.612;23.066;2023-05-10T08:56:18;25.23;;;23.42;;
7985;SDS011;4038;42.612;23.066;2023-05-10T08:58:45;26.98;;;24.88;;
7985;SDS011;4038;42.612;23.066;2023-05-10T09:01:10;26.83;;;24.90;;
7985;SDS011;4038;42.612;23.066;2023-05-10T09:03:38;26.13;;;24.17;;
7985;SDS011;4038;42.612;23.066;2023-05-10T09:06:04;26.65;;;24.63;;
7985;SDS011;4038;42.612;23.066;2023-05-10T09:08:30;26.95;;;24.75;;
7985;SDS011;4038;42.612;23.066;2023-05-10T09:10:56;27.27;;;25.27;;
7985;SDS011;4038;42.612;23.066;2023-05-10T09:13:22;27.55;;;25.40;;
7985;SDS011;4038;42.612;23.066;2023-05-10T09:15:49;28.58;;;26.27;;
7985;SDS011;4038;42.612;23.066;2023-05-10T09:18:16;27.48;;;25.15;;
7985;SDS011;4038;42.612;23.066;2023-05-10T09:20:41;27.25;;;25.23;;
7985;SDS011;4038;42.612;23.066;2023-05-10T09:23:07;26.73;;;24.85;;
7985;SDS011;4038;42.612;23.066;2023-05-10T09:25:33;28.17;;;25.98;;
7985;SDS011;4038;42.612;23.066;2023-05-10T09:27:59;29.15;;;26.30;;
7985;SDS011;4038;42.612;23.066;2023-05-10T09:30:28;27.83;;;25.75;;
7985;SDS011;4038;42.612;23.066;2023-05-10T09:32:55;29.17;;;26.67;;
7985;SDS011;4038;42.612;23.066;2023-05-10T09:35:22;28.60;;;26.27;;
7985;SDS011;4038;42.612;23.066;2023-05-10T09:37:50;26.88;;;24.58;;
7985;SDS011;4038;42.612;23.066;2023-05-10T09:40:25;27.20;;;25.10;;
7985;SDS011;4038;42.612;23.066;2023-05-10T09:42:53;28.35;;;25.88;;
7985;SDS011;4038;42.612;23.066;2023-05-10T09:45:23;29.60;;;26.63;;
7985;SDS011;4038;42.612;23.066;2023-05-10T09:47:50;31.42;;;28.00;;
7985;SDS011;4038;42.612;23.066;2023-05-10T09:50:15;29.65;;;26.85;;
7985;SDS011;4038;42.612;23.066;2023-05-10T09:52:57;28.08;;;25.75;;
7985;SDS011;4038;42.612;23.066;2023-05-10T09:55:45;28.23;;;26.00;;
7985;SDS011;4038;42.612;23.066;2023-05-10T09:58:11;28.40;;;26.30;;
7985;SDS011;4038;42.612;23.066;2023-05-10T10:00:38;27.40;;;25.33;;
7985;SDS011;4038;42.612;23.066;2023-05-10T10:03:12;28.50;;;26.38;;
7985;SDS011;4038;42.612;23.066;2023-05-10T10:05:42;26.73;;;24.83;;
7985;SDS011;4038;42.612;23.066;2023-05-10T10:08:08;27.83;;;25.52;;
7985;SDS011;4038;42.612;23.066;2023-05-10T10:10:34;27.13;;;25.13;;
7985;SDS011;4038;42.612;23.066;2023-05-10T10:13:00;27.40;;;25.30;;
7985;SDS011;4038;42.612;23.066;2023-05-10T10:15:26;27.20;;;25.00;;
7985;SDS011;4038;42.612;23.066;2023-05-10T10:17:52;26.67;;;24.75;;
7985;SDS011;4038;42.612;23.066;2023-05-10T10:20:18;26.65;;;24.75;;
7985;SDS011;4038;42.612;23.066;2023-05-10T10:22:45;26.75;;;24.85;;
7985;SDS011;4038;42.612;23.066;2023-05-10T10:25:12;27.73;;;25.63;;
7985;SDS011;4038;42.612;23.066;2023-05-10T10:30:37;27.15;;;25.05;;
7985;SDS011;4038;42.612;23.066;2023-05-10T10:35:52;29.17;;;26.77;;
7985;SDS011;4038;42.612;23.066;2023-05-10T10:38:17;28.77;;;26.67;;
7985;SDS011;4038;42.612;23.066;2023-05-10T10:40:43;28.25;;;26.05;;
7985;SDS011;4038;42.612;23.066;2023-05-10T10:43:24;27.83;;;25.83;;
7985;SDS011;4038;42.612;23.066;2023-05-10T10:48:39;29.38;;;27.08;;
7985;SDS011;4038;42.612;23.066;2023-05-10T10:51:06;28.23;;;26.02;;
7985;SDS011;4038;42.612;23.066;2023-05-10T10:53:31;28.85;;;26.65;;
7985;SDS011;4038;42.612;23.066;2023-05-10T10:56:10;30.02;;;27.92;;
7985;SDS011;4038;42.612;23.066;2023-05-10T10:58:37;28.90;;;26.35;;
7985;SDS011;4038;42.612;23.066;2023-05-10T11:01:18;29.95;;;27.70;;
7985;SDS011;4038;42.612;23.066;2023-05-10T11:06:43;30.50;;;27.98;;
7985;SDS011;4038;42.612;23.066;2023-05-10T11:09:10;31.25;;;28.58;;
7985;SDS011;4038;42.612;23.066;2023-05-10T11:11:50;31.13;;;28.35;;
7985;SDS011;4038;42.612;23.066;2023-05-10T11:14:19;31.75;;;29.15;;
7985;SDS011;4038;42.612;23.066;2023-05-10T11:16:46;31.95;;;29.17;;
7985;SDS011;4038;42.612;23.066;2023-05-10T11:19:12;34.13;;;29.95;;
7985;SDS011;4038;42.612;23.066;2023-05-10T11:21:52;30.58;;;28.27;;
7985;SDS011;4038;42.612;23.066;2023-05-10T11:24:38;31.48;;;28.88;;
7985;SDS011;4038;42.612;23.066;2023-05-10T11:27:04;30.88;;;28.52;;
7985;SDS011;4038;42.612;23.066;2023-05-10T11:29:30;32.05;;;29.55;;
7985;SDS011;4038;42.612;23.066;2023-05-10T11:31:58;31.27;;;28.67;;
7985;SDS011;4038;42.612;23.066;2023-05-10T11:34:25;31.70;;;28.92;;
7985;SDS011;4038;42.612;23.066;2023-05-10T11:36:56;32.65;;;29.88;;
7985;SDS011;4038;42.612;23.066;2023-05-10T11:39:25;30.70;;;27.92;;
7985;SDS011;4038;42.612;23.066;2023-05-10T11:41:52;31.83;;;28.52;;
7985;SDS011;4038;42.612;23.066;2023-05-10T11:44:18;31.65;;;28.95;;
7985;SDS011;4038;42.612;23.066;2023-05-10T11:46:44;29.95;;;27.45;;
7985;SDS011;4038;42.612;23.066;2023-05-10T11:49:09;31.92;;;29.23;;
7985;SDS011;4038;42.612;23.066;2023-05-10T11:51:35;30.88;;;28.38;;
7985;SDS011;4038;42.612;23.066;2023-05-10T11:54:04;32.20;;;29.50;;
7985;SDS011;4038;42.612;23.066;2023-05-10T11:56:32;30.58;;;28.27;;
7985;SDS011;4038;42.612;23.066;2023-05-10T11:58:58;30.13;;;27.85;;
7985;SDS011;4038;42.612;23.066;2023-05-10T12:01:26;30.83;;;28.42;;
7985;SDS011;4038;42.612;23.066;2023-05-10T12:03:52;28.83;;;26.83;;
7985;SDS011;4038;42.612;23.066;2023-05-10T12:06:19;30.15;;;27.75;;
7985;SDS011;4038;42.612;23.066;2023-05-10T12:08:46;29.15;;;26.73;;
7985;SDS011;4038;42.612;23.066;2023-05-10T12:11:13;28.83;;;26.70;;
7985;SDS011;4038;42.612;23.066;2023-05-10T12:13:40;27.83;;;25.70;;
7985;SDS011;4038;42.612;23.066;2023-05-10T12:16:24;28.73;;;26.42;;
7985;SDS011;4038;42.612;23.066;2023-05-10T12:18:55;28.30;;;26.20;;
7985;SDS011;4038;42.612;23.066;2023-05-10T12:21:22;27.73;;;25.73;;
7985;SDS011;4038;42.612;23.066;2023-05-10T12:23:49;29.20;;;27.00;;
7985;SDS011;4038;42.612;23.066;2023-05-10T12:26:16;28.55;;;26.45;;
7985;SDS011;4038;42.612;23.066;2023-05-10T12:28:42;28.92;;;26.67;;
7985;SDS011;4038;42.612;23.066;2023-05-10T12:31:08;29.70;;;27.50;;
7985;SDS011;4038;42.612;23.066;2023-05-10T12:33:37;28.92;;;26.35;;
7985;SDS011;4038;42.612;23.066;2023-05-10T12:36:14;27.15;;;25.05;;
7985;SDS011;4038;42.612;23.066;2023-05-10T12:38:41;28.90;;;26.60;;
7985;SDS011;4038;42.612;23.066;2023-05-10T12:41:12;29.42;;;27.17;;
7985;SDS011;4038;42.612;23.066;2023-05-10T12:43:39;30.00;;;27.67;;
7985;SDS011;4038;42.612;23.066;2023-05-10T12:46:12;28.30;;;26.02;;
7985;SDS011;4038;42.612;23.066;2023-05-10T12:48:44;29.40;;;27.10;;
7985;SDS011;4038;42.612;23.066;2023-05-10T12:51:11;28.25;;;26.08;;
7985;SDS011;4038;42.612;23.066;2023-05-10T12:53:41;28.58;;;26.38;;
7985;SDS011;4038;42.612;23.066;2023-05-10T12:56:06;28.70;;;26.10;;
7985;SDS011;4038;42.612;23.066;2023-05-10T12:58:32;28.33;;;25.65;;
7985;SDS011;4038;42.612;23.066;2023-05-10T13:00:58;29.17;;;26.88;;
7985;SDS011;4038;42.612;23.066;2023-05-10T13:03:24;31.52;;;28.75;;
7985;SDS011;4038;42.612;23.066;2023-05-10T13:05:50;28.10;;;25.95;;
7985;SDS011;4038;42.612;23.066;2023-05-10T13:08:15;28.13;;;25.92;;
7985;SDS011;4038;42.612;23.066;2023-05-10T13:10:41;30.05;;;27.75;;
7985;SDS011;4038;42.612;23.066;2023-05-10T13:13:06;29.80;;;27.38;;
7985;SDS011;4038;42.612;23.066;2023-05-10T13:15:33;27.25;;;25.17;;
7985;SDS011;4038;42.612;23.066;2023-05-10T13:17:58;29.45;;;27.05;;
7985;SDS011;4038;42.612;23.066;2023-05-10T13:20:25;29.67;;;27.30;;
7985;SDS011;4038;42.612;23.066;2023-05-10T13:22:50;28.55;;;26.10;;
7985;SDS011;4038;42.612;23.066;2023-05-10T13:25:16;28.98;;;26.38;;
7985;SDS011;4038;42.612;23.066;2023-05-10T13:27:41;29.27;;;26.77;;
7985;SDS011;4038;42.612;23.066;2023-05-10T13:30:07;28.58;;;26.20;;
7985;SDS011;4038;42.612;23.066;2023-05-10T13:32:33;29.23;;;26.83;;
7985;SDS011;4038;42.612;23.066;2023-05-10T13:34:59;31.13;;;28.45;;
7985;SDS011;4038;42.612;23.066;2023-05-10T13:37:24;29.38;;;26.95;;
7985;SDS011;4038;42.612;23.066;2023-05-10T13:39:50;29.63;;;27.35;;
7985;SDS011;4038;42.612;23.066;2023-05-10T13:42:15;29.60;;;27.08;;
7985;SDS011;4038;42.612;23.066;2023-05-10T13:44:41;29.10;;;26.70;;
7985;SDS011;4038;42.612;23.066;2023-05-10T13:47:06;28.55;;;26.35;;
7985;SDS011;4038;42.612;23.066;2023-05-10T13:49:31;30.10;;;27.73;;
7985;SDS011;4038;42.612;23.066;2023-05-10T13:51:57;30.70;;;28.27;;
7985;SDS011;4038;42.612;23.066;2023-05-10T13:54:23;30.20;;;27.55;;
7985;SDS011;4038;42.612;23.066;2023-05-10T13:56:49;31.27;;;28.50;;
7985;SDS011;4038;42.612;23.066;2023-05-10T13:59:14;31.42;;;28.63;;
7985;SDS011;4038;42.612;23.066;2023-05-10T14:01:40;30.63;;;27.95;;
7985;SDS011;4038;42.612;23.066;2023-05-10T14:04:07;31.50;;;29.05;;
7985;SDS011;4038;42.612;23.066;2023-05-10T14:06:35;30.92;;;28.52;;
7985;SDS011;4038;42.612;23.066;2023-05-10T14:09:01;31.20;;;28.52;;
7985;SDS011;4038;42.612;23.066;2023-05-10T14:11:27;30.58;;;28.20;;
7985;SDS011;4038;42.612;23.066;2023-05-10T14:13:52;30.25;;;28.00;;
7985;SDS011;4038;42.612;23.066;2023-05-10T14:16:18;29.52;;;27.20;;
7985;SDS011;4038;42.612;23.066;2023-05-10T14:18:44;30.13;;;27.75;;
7985;SDS011;4038;42.612;23.066;2023-05-10T14:21:09;31.95;;;29.45;;
7985;SDS011;4038;42.612;23.066;2023-05-10T14:23:34;31.35;;;28.95;;
7985;SDS011;4038;42.612;23.066;2023-05-10T14:26:00;34.13;;;31.33;;
7985;SDS011;4038;42.612;23.066;2023-05-10T14:28:26;34.05;;;31.25;;
7985;SDS011;4038;42.612;23.066;2023-05-10T14:30:52;34.42;;;31.73;;
7985;SDS011;4038;42.612;23.066;2023-05-10T14:33:17;34.20;;;31.52;;
7985;SDS011;4038;42.612;23.066;2023-05-10T14:35:43;35.20;;;32.42;;
7985;SDS011;4038;42.612;23.066;2023-05-10T14:38:10;33.35;;;30.75;;
7985;SDS011;4038;42.612;23.066;2023-05-10T14:40:36;34.85;;;31.95;;
7985;SDS011;4038;42.612;23.066;2023-05-10T14:43:01;33.22;;;30.35;;
7985;SDS011;4038;42.612;23.066;2023-05-10T14:45:26;36.08;;;33.28;;
7985;SDS011;4038;42.612;23.066;2023-05-10T14:47:52;37.55;;;34.53;;
7985;SDS011;4038;42.612;23.066;2023-05-10T14:50:18;37.83;;;34.75;;
7985;SDS011;4038;42.612;23.066;2023-05-10T14:56:02;37.00;;;33.72;;
7985;SDS011;4038;42.612;23.066;2023-05-10T14:58:28;33.42;;;30.52;;
7985;SDS011;4038;42.612;23.066;2023-05-10T15:00:53;31.65;;;29.17;;
7985;SDS011;4038;42.612;23.066;2023-05-10T15:03:19;31.55;;;28.95;;
7985;SDS011;4038;42.612;23.066;2023-05-10T15:05:44;37.60;;;34.42;;
7985;SDS011;4038;42.612;23.066;2023-05-10T15:08:10;32.03;;;29.60;;
7985;SDS011;4038;42.612;23.066;2023-05-10T15:10:37;30.27;;;27.88;;
7985;SDS011;4038;42.612;23.066;2023-05-10T15:13:03;31.70;;;29.25;;
7985;SDS011;4038;42.612;23.066;2023-05-10T15:15:29;30.27;;;27.73;;
7985;SDS011;4038;42.612;23.066;2023-05-10T15:17:54;30.27;;;28.08;;
7985;SDS011;4038;42.612;23.066;2023-05-10T15:20:20;31.42;;;28.67;;
7985;SDS011;4038;42.612;23.066;2023-05-10T15:22:45;38.67;;;35.38;;
7985;SDS011;4038;42.612;23.066;2023-05-10T15:25:11;33.05;;;30.50;;
7985;SDS011;4038;42.612;23.066;2023-05-10T15:27:36;36.08;;;33.28;;
7985;SDS011;4038;42.612;23.066;2023-05-10T15:30:02;35.15;;;32.25;;
7985;SDS011;4038;42.612;23.066;2023-05-10T15:32:27;34.17;;;31.30;;
7985;SDS011;4038;42.612;23.066;2023-05-10T15:34:54;32.95;;;30.35;;
7985;SDS011;4038;42.612;23.066;2023-05-10T15:37:19;32.45;;;30.05;;
7985;SDS011;4038;42.612;23.066;2023-05-10T15:39:45;31.90;;;29.40;;
7985;SDS011;4038;42.612;23.066;2023-05-10T15:42:10;33.35;;;30.75;;